Time;durP1;ratioP1;P1;durP2;ratioP2;P2;SDS_P1;SDS_P2;PMS_P1;PMS_P2;Temp;Humidity;BMP_temperature;BMP_pressure;BME280_temperature;BME280_humidity;BME280_pressure;Samples;Min_cycle;Max_cycle;Signal;HPM_P1;HPM_P2
2022/06/30 00:00:20;;;;;;;5.28;3.72;;;;;;;26.30;47.17;99350.44;4377593;32;34682;-67
2022/06/30 00:02:47;;;;;;;5.65;2.90;;;;;;;26.05;47.50;99349.91;4377672;32;33874;-67
2022/06/30 00:05:15;;;;;;;4.35;3.05;;;;;;;25.99;47.67;99348.56;4376664;32;34583;-67
2022/06/30 00:07:43;;;;;;;4.57;2.80;;;;;;;25.86;48.02;99342.28;4377539;32;33520;-67
2022/06/30 00:10:11;;;;;;;5.18;3.55;;;;;;;25.98;47.82;99345.00;4377549;32;35102;-67
2022/06/30 00:12:40;;;;;;;4.85;3.00;;;;;;;25.99;47.98;99343.03;4377379;32;34325;-69
2022/06/30 00:15:08;;;;;;;5.00;3.28;;;;;;;26.12;47.34;99352.03;4377573;32;33869;-75
2022/06/30 00:17:35;;;;;;;4.75;3.05;;;;;;;25.95;47.91;99354.03;4377465;32;33516;-68
2022/06/30 00:20:03;;;;;;;4.60;3.60;;;;;;;25.65;48.44;99348.16;4376653;32;35014;-68
2022/06/30 00:22:31;;;;;;;4.68;3.28;;;;;;;25.70;48.53;99353.44;4377285;32;34988;-67
2022/06/30 00:24:59;;;;;;;4.53;3.20;;;;;;;25.40;49.15;99355.88;4377195;32;33517;-67
2022/06/30 00:27:26;;;;;;;4.37;3.37;;;;;;;25.45;48.65;99344.50;4377028;32;34903;-73
2022/06/30 00:29:54;;;;;;;6.25;3.00;;;;;;;25.18;49.37;99352.53;4363731;32;33387;-72
2022/06/30 00:32:21;;;;;;;5.47;3.58;;;;;;;25.21;49.66;99356.56;4376476;32;34363;-67
2022/06/30 00:34:49;;;;;;;4.65;3.28;;;;;;;25.21;49.73;99351.03;4377043;32;33650;-67
2022/06/30 00:37:16;;;;;;;5.20;3.35;;;;;;;24.98;49.79;99359.09;4377368;32;34056;-68
2022/06/30 00:39:44;;;;;;;4.82;3.20;;;;;;;24.89;50.10;99364.81;4377006;32;34314;-67
2022/06/30 00:42:11;;;;;;;5.45;3.45;;;;;;;24.90;50.20;99360.06;4377012;32;34145;-67
2022/06/30 00:44:39;;;;;;;3.72;3.12;;;;;;;24.88;50.38;99357.66;4379223;32;33793;-68
2022/06/30 00:47:07;;;;;;;4.97;3.47;;;;;;;24.90;50.48;99354.50;4378498;32;33993;-67
2022/06/30 00:49:34;;;;;;;5.10;3.45;;;;;;;24.54;51.21;99353.53;4365631;32;34179;-74
2022/06/30 00:52:02;;;;;;;4.85;3.10;;;;;;;24.87;50.78;99361.59;4379096;32;34868;-75
2022/06/30 00:54:33;;;;;;;4.50;3.37;;;;;;;24.60;51.55;99351.28;4378500;32;33867;-74
2022/06/30 00:57:01;;;;;;;4.70;3.35;;;;;;;24.89;51.05;99356.47;4378779;32;34544;-67
2022/06/30 00:59:29;;;;;;;5.82;3.50;;;;;;;25.07;50.36;99350.59;4378722;32;35043;-68
2022/06/30 01:01:59;;;;;;;5.85;3.70;;;;;;;24.90;50.58;99363.66;4365010;32;34056;-74
2022/06/30 01:04:30;;;;;;;4.35;3.47;;;;;;;25.18;50.11;99352.53;4378759;32;33727;-73
2022/06/30 01:06:58;;;;;;;5.57;3.65;;;;;;;25.09;49.97;99348.28;4365346;32;33997;-70
2022/06/30 01:14:58;;;;;;;5.65;3.37;;;;;;;24.09;52.56;99341.47;4378581;32;34462;-68
2022/06/30 01:17:26;;;;;;;4.10;3.12;;;;;;;24.25;52.13;99349.06;4377260;32;34768;-72
2022/06/30 01:19:54;;;;;;;6.00;3.20;;;;;;;24.63;51.34;99345.06;4378573;32;35126;-67
2022/06/30 01:22:22;;;;;;;5.20;3.50;;;;;;;24.12;52.10;99337.19;4378380;32;34239;-67
2022/06/30 01:24:50;;;;;;;5.05;3.40;;;;;;;24.11;52.01;99344.72;4378387;32;33761;-71
2022/06/30 01:27:18;;;;;;;4.22;3.15;;;;;;;24.08;51.88;99342.66;4378773;32;34039;-67
2022/06/30 01:29:46;;;;;;;6.00;3.22;;;;;;;23.99;52.08;99347.50;4378262;32;34298;-73
2022/06/30 01:32:14;;;;;;;4.07;3.10;;;;;;;23.91;52.42;99356.75;4378684;32;34088;-67
2022/06/30 01:34:41;;;;;;;4.12;3.05;;;;;;;23.64;53.12;99347.94;4378829;32;33424;-74
2022/06/30 01:37:08;;;;;;;5.47;4.05;;;;;;;23.63;53.29;99349.12;4378431;32;33161;-67
2022/06/30 01:39:36;;;;;;;5.62;3.67;;;;;;;23.96;52.70;99350.97;4378867;32;34339;-68
2022/06/30 01:42:04;;;;;;;5.10;3.50;;;;;;;24.42;51.75;99348.78;4378376;32;34251;-67
2022/06/30 01:44:32;;;;;;;5.65;3.40;;;;;;;23.96;52.75;99356.50;4378607;32;33433;-73
2022/06/30 01:47:00;;;;;;;5.15;3.40;;;;;;;24.48;51.60;99357.66;4378802;32;33949;-67
2022/06/30 01:49:28;;;;;;;4.95;3.47;;;;;;;23.79;53.41;99357.56;4378437;32;33908;-70
2022/06/30 01:51:55;;;;;;;7.00;3.25;;;;;;;23.71;53.71;99359.28;4378544;32;34959;-68
2022/06/30 01:54:23;;;;;;;7.45;3.35;;;;;;;23.72;53.40;99360.09;4377579;32;33901;-66
2022/06/30 01:56:51;;;;;;;3.75;3.22;;;;;;;23.64;53.68;99363.75;4378395;32;34937;-66
2022/06/30 01:59:18;;;;;;;4.65;3.20;;;;;;;23.98;52.87;99368.06;4378160;32;34995;-66
2022/06/30 02:01:46;;;;;;;4.90;3.70;;;;;;;23.80;53.09;99366.66;4378479;32;34859;-68
2022/06/30 02:07:00;;;;;;;5.45;3.42;;;;;;;23.78;53.03;99374.53;4378465;32;33768;-74
2022/06/30 02:09:29;;;;;;;4.07;3.20;;;;;;;23.59;53.38;99369.53;4378356;32;34180;-68
2022/06/30 02:14:42;;;;;;;5.32;3.67;;;;;;;23.59;53.67;99367.56;4377766;32;34690;-74
2022/06/30 02:17:10;;;;;;;5.75;3.83;;;;;;;23.68;53.85;99373.00;4378571;32;33443;-67
2022/06/30 02:19:37;;;;;;;5.82;3.40;;;;;;;23.82;53.35;99375.44;4378476;32;34201;-72
2022/06/30 02:22:05;;;;;;;5.40;3.20;;;;;;;23.85;52.93;99377.53;4378415;32;34971;-72
2022/06/30 02:24:32;;;;;;;5.30;3.70;;;;;;;23.91;52.76;99373.38;4378414;32;33601;-74
2022/06/30 02:27:00;;;;;;;4.80;3.58;;;;;;;23.48;53.78;99371.97;4376945;32;33986;-68
2022/06/30 02:29:27;;;;;;;5.22;3.53;;;;;;;23.71;53.29;99375.06;4377635;32;34962;-67
2022/06/30 02:31:55;;;;;;;4.25;3.33;;;;;;;23.50;53.66;99366.88;4378282;32;33845;-67
2022/06/30 02:34:22;;;;;;;6.85;3.40;;;;;;;23.46;53.69;99368.72;4372284;32;33657;-75
2022/06/30 02:36:50;;;;;;;6.80;3.90;;;;;;;23.81;52.64;99380.19;4378102;32;34004;-68
2022/06/30 02:39:18;;;;;;;4.18;3.10;;;;;;;23.14;54.31;99374.75;4377969;32;33995;-70
2022/06/30 02:41:45;;;;;;;5.93;3.40;;;;;;;23.09;54.45;99377.75;4378111;32;34260;-73
2022/06/30 02:44:13;;;;;;;5.70;3.25;;;;;;;23.39;53.96;99371.22;4377838;32;33487;-68
2022/06/30 02:46:41;;;;;;;6.60;3.58;;;;;;;23.36;53.58;99366.41;4377927;32;34713;-67
2022/06/30 02:49:08;;;;;;;4.70;3.25;;;;;;;23.29;53.24;99364.19;4377977;32;35116;-67
2022/06/30 02:51:36;;;;;;;6.22;3.72;;;;;;;23.28;53.27;99374.47;4378007;32;34393;-67
2022/06/30 02:54:03;;;;;;;4.62;3.40;;;;;;;23.09;53.69;99374.19;4377927;32;33732;-71
2022/06/30 02:56:31;;;;;;;3.97;3.22;;;;;;;23.36;53.11;99369.97;4378524;32;34013;-74
2022/06/30 02:58:59;;;;;;;6.00;3.40;;;;;;;22.67;54.17;99363.16;4377465;32;35031;-67
2022/06/30 03:01:26;;;;;;;4.40;3.15;;;;;;;23.24;53.37;99367.16;4378024;32;34836;-73
2022/06/30 03:03:53;;;;;;;6.80;3.62;;;;;;;23.11;52.57;99367.16;4378037;32;34298;-67
2022/06/30 03:06:21;;;;;;;5.05;3.10;;;;;;;22.94;53.26;99365.34;4377843;32;34762;-68
2022/06/30 03:08:49;;;;;;;4.70;3.28;;;;;;;22.80;53.81;99375.09;4378100;32;34246;-67
2022/06/30 03:11:16;;;;;;;4.35;3.40;;;;;;;23.14;53.27;99382.25;4378024;32;34313;-67
2022/06/30 03:14:01;;;;;;;5.35;3.28;;;;;;;23.30;52.86;99387.94;4377446;32;33576;-74
2022/06/30 03:16:28;;;;;;;3.80;3.03;;;;;;;23.09;53.45;99388.81;4377820;32;34608;-68
2022/06/30 03:18:56;;;;;;;5.53;3.72;;;;;;;22.53;55.80;99382.81;4377999;32;35109;-70
2022/06/30 03:21:24;;;;;;;6.30;3.58;;;;;;;22.90;54.90;99385.75;4377493;32;34065;-68
2022/06/30 03:23:51;;;;;;;5.45;3.90;;;;;;;22.90;55.14;99391.28;4378124;32;33901;-67
2022/06/30 03:26:18;;;;;;;5.15;3.58;;;;;;;22.92;55.45;99394.50;4377624;32;34633;-69
2022/06/30 03:28:46;;;;;;;6.50;3.70;;;;;;;23.34;54.53;99397.97;4377460;32;34138;-67
2022/06/30 03:31:13;;;;;;;4.62;3.55;;;;;;;23.14;54.96;99404.41;4379236;32;34848;-69
2022/06/30 03:33:41;;;;;;;5.22;3.58;;;;;;;23.42;54.66;99398.25;4391810;32;32612;-66
2022/06/30 03:36:09;;;;;;;5.15;3.87;;;;;;;23.47;54.31;99412.66;4393143;32;34398;-67
2022/06/30 03:38:36;;;;;;;7.78;3.60;;;;;;;23.80;53.89;99403.50;4391953;32;34286;-74
2022/06/30 03:41:03;;;;;;;5.43;3.37;;;;;;;23.65;53.70;99409.69;4390438;32;34137;-67
2022/06/30 03:43:31;;;;;;;6.57;3.80;;;;;;;23.61;54.37;99411.53;4380079;32;34541;-67
2022/06/30 03:45:59;;;;;;;5.28;3.60;;;;;;;23.85;54.04;99413.56;4377622;32;33653;-73
2022/06/30 03:48:26;;;;;;;5.05;3.72;;;;;;;24.07;53.55;99415.03;4377492;32;34422;-67
2022/06/30 03:50:54;;;;;;;5.78;3.30;;;;;;;24.13;53.79;99413.66;4377156;32;33693;-67
2022/06/30 03:53:21;;;;;;;5.37;3.80;;;;;;;24.03;53.54;99414.13;4386645;32;33557;-74
2022/06/30 03:55:48;;;;;;;3.80;3.40;;;;;;;24.31;53.90;99417.78;4388772;32;33969;-69
2022/06/30 03:58:16;;;;;;;7.20;3.70;;;;;;;24.75;51.94;99429.03;4377278;32;34127;-67
2022/06/30 04:00:43;;;;;;;4.37;3.17;;;;;;;24.83;51.28;99427.25;4377530;32;34097;-70
2022/06/30 04:03:11;;;;;;;5.97;3.37;;;;;;;25.02;50.24;99426.62;4379882;32;33841;-68
2022/06/30 04:05:40;;;;;;;5.22;3.58;;;;;;;24.85;51.58;99426.91;4379808;32;34027;-73
2022/06/30 04:08:08;;;;;;;4.60;3.33;;;;;;;25.08;50.81;99430.75;4381361;32;34208;-72
2022/06/30 04:10:35;;;;;;;4.32;3.35;;;;;;;24.88;52.06;99427.03;4382019;32;34827;-67
2022/06/30 04:13:03;;;;;;;4.10;2.92;;;;;;;25.19;52.02;99425.50;4379317;32;33782;-67
2022/06/30 04:15:30;;;;;;;5.80;3.35;;;;;;;25.40;51.89;99430.88;4380016;32;34686;-67
2022/06/30 04:17:58;;;;;;;5.30;3.28;;;;;;;26.04;48.22;99434.47;4383677;32;34328;-67
2022/06/30 04:20:25;;;;;;;5.47;3.67;;;;;;;25.85;48.79;99432.38;4385245;32;35673;-68
2022/06/30 04:22:54;;;;;;;5.18;3.28;;;;;;;25.36;52.13;99416.06;4385421;32;33709;-65
2022/06/30 04:25:22;;;;;;;5.22;3.35;;;;;;;25.93;49.19;99425.88;4375185;32;34009;-67
2022/06/30 04:27:52;;;;;;;4.40;2.85;;;;;;;25.56;49.96;99411.41;4382351;32;34169;-68
2022/06/30 04:32:37;;;;;;;4.90;3.55;;;;;;;25.65;51.35;99417.59;4367694;32;34414;-67
2022/06/30 04:33:08;;;;;;;4.45;3.05;;;;;;;25.78;50.42;99419.13;4381137;32;33797;-67
2022/06/30 04:35:35;;;;;;;4.30;3.12;;;;;;;25.76;48.92;99418.66;4380789;32;34696;-68
2022/06/30 04:38:04;;;;;;;5.35;3.37;;;;;;;25.53;50.67;99418.50;4380645;32;34184;-69
2022/06/30 04:43:17;;;;;;;5.25;3.20;;;;;;;26.06;50.81;99434.12;4365674;32;33492;-67
2022/06/30 04:45:45;;;;;;;5.65;3.28;;;;;;;26.42;50.69;99424.63;4365742;32;34648;-67
2022/06/30 04:48:13;;;;;;;4.93;3.22;;;;;;;27.06;47.22;99425.19;4365725;32;35239;-67
2022/06/30 04:50:40;;;;;;;4.72;3.25;;;;;;;27.50;48.17;99426.84;4352019;32;34301;-73
2022/06/30 04:53:08;;;;;;;5.57;3.35;;;;;;;27.91;44.04;99418.81;4365691;32;33980;-68
2022/06/30 04:55:36;;;;;;;7.00;2.95;;;;;;;27.84;44.37;99419.47;4353404;32;34036;-67
2022/06/30 04:58:03;;;;;;;4.25;3.10;;;;;;;28.04;47.09;99422.19;4380541;32;34316;-67
2022/06/30 05:00:31;;;;;;;4.65;3.15;;;;;;;28.36;45.59;99426.25;4380452;32;34232;-66
2022/06/30 05:02:58;;;;;;;4.82;2.78;;;;;;;28.12;45.94;99430.28;4380458;32;33674;-68
2022/06/30 05:05:26;;;;;;;6.18;3.30;;;;;;;28.58;46.22;99429.37;4377752;32;83500;-71
2022/06/30 05:07:54;;;;;;;4.20;2.87;;;;;;;28.54;43.09;99420.94;4371034;32;33937;-66
2022/06/30 05:10:21;;;;;;;5.47;3.22;;;;;;;28.65;45.37;99429.47;4365480;32;33975;-68
2022/06/30 05:12:49;;;;;;;4.43;3.37;;;;;;;28.27;41.67;99420.13;4365279;32;34461;-68
2022/06/30 05:15:17;;;;;;;6.75;3.25;;;;;;;28.46;44.11;99418.41;4365325;32;34005;-67
2022/06/30 05:17:44;;;;;;;4.25;3.35;;;;;;;28.50;44.86;99419.28;4365207;32;35102;-68
2022/06/30 05:20:12;;;;;;;6.97;3.60;;;;;;;29.48;42.84;99427.63;4364951;32;33911;-69
2022/06/30 05:22:39;;;;;;;4.95;3.58;;;;;;;29.94;41.63;99427.28;4377370;32;34221;-67
2022/06/30 05:27:53;;;;;;;6.55;3.35;;;;;;;29.96;41.53;99431.28;4380107;32;35395;-68
2022/06/30 05:30:21;;;;;;;5.55;3.78;;;;;;;30.53;40.83;99428.09;4376681;32;34716;-67
2022/06/30 05:32:48;;;;;;;4.93;3.28;;;;;;;30.49;40.18;99429.25;4377001;32;34548;-68
2022/06/30 05:35:16;;;;;;;6.95;3.17;;;;;;;30.95;39.37;99423.91;4377277;32;34895;-67
2022/06/30 05:37:51;;;;;;;4.22;3.12;;;;;;;30.29;36.93;99425.94;4377000;32;34203;-67
2022/06/30 05:40:19;;;;;;;4.70;2.70;;;;;;;30.81;38.64;99430.22;4363791;32;34543;-67
2022/06/30 05:42:48;;;;;;;4.75;3.10;;;;;;;30.76;35.30;99425.00;4377295;32;33495;-66
2022/06/30 05:45:16;;;;;;;4.20;2.75;;;;;;;30.48;33.75;99424.88;4370591;32;33560;-71
2022/06/30 05:47:48;;;;;;;3.95;2.72;;;;;;;30.57;36.23;99430.91;4380185;32;34913;-72
2022/06/30 05:50:15;;;;;;;5.57;2.97;;;;;;;31.22;34.33;99429.97;4391836;32;34192;-76
2022/06/30 05:52:43;;;;;;;4.15;2.87;;;;;;;31.80;34.11;99430.88;4391767;32;33315;-71
2022/06/30 05:55:11;;;;;;;4.28;2.40;;;;;;;30.61;32.46;99423.34;4390956;32;33893;-73
2022/06/30 05:57:54;;;;;;;3.58;2.22;;;;;;;31.16;31.22;99425.16;4381850;32;33857;-71
2022/06/30 06:00:23;;;;;;;4.55;3.05;;;;;;;31.04;32.32;99421.53;4375797;32;35011;-70
2022/06/30 06:02:51;;;;;;;3.30;2.58;;;;;;;31.59;33.22;99428.87;4363083;32;33779;-73
2022/06/30 06:05:20;;;;;;;3.55;2.58;;;;;;;31.80;31.75;99425.28;4376606;32;33914;-71
2022/06/30 06:07:48;;;;;;;3.67;2.42;;;;;;;31.63;30.28;99421.25;4364346;32;34149;-69
2022/06/30 06:10:16;;;;;;;4.05;2.83;;;;;;;31.62;29.06;99430.88;4363953;32;35082;-71
2022/06/30 06:12:44;;;;;;;3.35;2.53;;;;;;;31.32;29.99;99427.59;4378170;32;34381;-71
2022/06/30 06:15:12;;;;;;;3.58;2.75;;;;;;;31.33;28.89;99427.19;4377529;32;33892;-77
2022/06/30 06:17:41;;;;;;;4.57;2.70;;;;;;;31.45;29.07;99423.25;4376868;32;34222;-68
2022/06/30 06:20:11;;;;;;;3.12;2.65;;;;;;;31.88;29.55;99426.88;4364420;32;33926;-69
2022/06/30 06:22:39;;;;;;;4.68;2.72;;;;;;;32.14;29.13;99427.69;4364883;32;33361;-70
2022/06/30 06:25:08;;;;;;;4.47;2.67;;;;;;;32.46;26.09;99430.44;4378378;32;34776;-70
2022/06/30 06:27:35;;;;;;;4.45;2.00;;;;;;;32.93;25.83;99435.91;4376505;32;34309;-70
2022/06/30 06:30:05;;;;;;;3.33;2.35;;;;;;;32.57;26.53;99430.44;4376657;32;34877;-71
2022/06/30 06:32:32;;;;;;;3.45;2.28;;;;;;;32.40;27.69;99425.66;4377879;32;33868;-72
2022/06/30 06:35:00;;;;;;;2.67;2.10;;;;;;;32.66;27.21;99430.00;4378087;32;33918;-70
2022/06/30 06:37:27;;;;;;;4.25;2.47;;;;;;;32.58;25.72;99422.81;4364535;32;34248;-70
2022/06/30 06:39:55;;;;;;;4.57;2.50;;;;;;;32.94;27.14;99428.28;4376404;32;33822;-72
2022/06/30 06:42:22;;;;;;;3.47;2.40;;;;;;;33.39;27.14;99423.66;4372053;32;34444;-71
2022/06/30 06:44:50;;;;;;;3.72;2.50;;;;;;;33.71;25.17;99426.22;4377603;32;34019;-71
2022/06/30 06:47:18;;;;;;;4.00;2.28;;;;;;;32.97;25.84;99419.03;4378033;32;34148;-75
2022/06/30 06:49:45;;;;;;;3.80;2.22;;;;;;;33.06;25.42;99423.03;4377926;32;34804;-71
2022/06/30 06:52:12;;;;;;;3.35;2.60;;;;;;;32.47;25.70;99426.41;4376962;32;34485;-69
2022/06/30 06:54:40;;;;;;;4.10;2.35;;;;;;;32.05;27.11;99421.69;4378054;32;34125;-72
2022/06/30 06:57:08;;;;;;;4.03;2.53;;;;;;;31.91;27.68;99413.25;4378003;32;34001;-78
2022/06/30 06:59:37;;;;;;;5.35;2.42;;;;;;;32.08;26.74;99418.09;4376639;32;34061;-74
2022/06/30 07:02:06;;;;;;;3.83;2.60;;;;;;;32.41;26.51;99418.81;4374357;32;33587;-70
2022/06/30 07:04:33;;;;;;;3.90;2.35;;;;;;;33.12;27.33;99412.16;4366068;32;34498;-71
2022/06/30 07:07:01;;;;;;;3.37;2.47;;;;;;;33.24;25.57;99425.75;4376706;32;35099;-70
2022/06/30 07:09:29;;;;;;;3.65;2.35;;;;;;;32.73;27.16;99418.75;4376301;32;34340;-70
2022/06/30 07:11:57;;;;;;;5.00;2.53;;;;;;;32.94;26.73;99415.03;4376578;32;33992;-71
2022/06/30 07:14:24;;;;;;;4.20;2.53;;;;;;;33.09;26.35;99410.97;4362956;32;33925;-70
2022/06/30 07:16:52;;;;;;;4.07;2.53;;;;;;;33.06;27.64;99416.56;4376063;32;34846;-70
2022/06/30 07:19:19;;;;;;;3.85;2.70;;;;;;;33.79;26.91;99412.13;4376645;32;33999;-71
2022/06/30 07:21:47;;;;;;;3.47;2.50;;;;;;;34.17;24.29;99412.19;4363115;32;33662;-73
2022/06/30 07:24:15;;;;;;;2.83;2.30;;;;;;;34.17;25.36;99418.62;4376559;32;34415;-73
2022/06/30 07:26:42;;;;;;;5.37;2.40;;;;;;;34.71;24.07;99415.25;4376553;32;35178;-71
2022/06/30 07:29:09;;;;;;;5.53;2.50;;;;;;;34.89;24.49;99412.19;4375372;32;34233;-74
2022/06/30 07:31:37;;;;;;;3.00;2.12;;;;;;;33.94;24.85;99407.16;4376073;32;33314;-72
2022/06/30 07:34:05;;;;;;;3.55;2.62;;;;;;;34.23;25.12;99404.88;4376490;32;34006;-71
2022/06/30 07:36:32;;;;;;;4.03;2.40;;;;;;;33.44;25.16;99413.97;4376807;32;34198;-71
2022/06/30 07:39:00;;;;;;;7.12;2.70;;;;;;;33.61;26.04;99404.63;4376421;32;34921;-71
2022/06/30 07:41:28;;;;;;;3.75;2.42;;;;;;;33.47;26.05;99408.31;4376594;32;34662;-71
2022/06/30 07:43:55;;;;;;;5.20;2.83;;;;;;;33.29;25.33;99410.47;4376290;32;34229;-71
2022/06/30 07:46:23;;;;;;;3.50;2.50;;;;;;;32.72;26.83;99394.66;4376036;32;34003;-70
2022/06/30 07:48:51;;;;;;;3.97;3.00;;;;;;;32.94;26.73;99392.56;4376355;32;34235;-71
2022/06/30 07:51:20;;;;;;;6.28;2.50;;;;;;;32.62;26.09;99398.31;4376340;32;33382;-71
2022/06/30 07:53:48;;;;;;;4.37;2.47;;;;;;;32.91;29.88;99390.56;4374232;32;33937;-71
2022/06/30 07:56:16;;;;;;;3.72;2.47;;;;;;;33.44;27.91;99399.91;4362117;32;33229;-72
2022/06/30 07:58:44;;;;;;;3.87;2.65;;;;;;;33.68;24.72;99398.94;4375436;32;34222;-71
2022/06/30 08:01:12;;;;;;;5.57;2.53;;;;;;;33.17;25.66;99394.84;4362595;32;33674;-70
2022/06/30 08:03:42;;;;;;;8.82;3.08;;;;;;;33.01;25.59;99394.53;4376117;32;33456;-69
2022/06/30 08:06:10;;;;;;;3.90;2.47;;;;;;;32.56;27.42;99394.34;4371106;32;34273;-76
2022/06/30 08:08:38;;;;;;;3.37;2.60;;;;;;;32.83;27.50;99387.00;4374719;32;34978;-71
2022/06/30 08:11:06;;;;;;;2.72;2.03;;;;;;;33.43;26.06;99395.50;4375795;32;34136;-72
2022/06/30 08:13:33;;;;;;;4.50;2.55;;;;;;;33.05;26.47;99396.09;4375818;32;34036;-73
2022/06/30 08:16:01;;;;;;;4.95;2.92;;;;;;;33.48;25.81;99400.69;4362263;32;34546;-72
2022/06/30 08:18:28;;;;;;;3.62;2.37;;;;;;;32.85;26.07;99392.19;4362723;32;34033;-71
2022/06/30 08:20:56;;;;;;;5.03;2.47;;;;;;;33.15;26.35;99382.41;4375923;32;34596;-73
2022/06/30 08:23:23;;;;;;;6.75;2.72;;;;;;;33.71;27.70;99391.69;4374444;32;34068;-75
2022/06/30 08:25:51;;;;;;;3.92;2.70;;;;;;;34.06;25.51;99390.56;4375671;32;34730;-72
2022/06/30 08:28:19;;;;;;;4.35;2.80;;;;;;;33.97;25.37;99392.25;4374950;32;34155;-71
2022/06/30 08:30:48;;;;;;;8.75;2.90;;;;;;;33.77;25.92;99390.03;4360535;32;34516;-70
2022/06/30 08:33:17;;;;;;;3.22;2.22;;;;;;;33.92;26.75;99385.06;4375714;32;34815;-72
2022/06/30 08:35:44;;;;;;;3.58;2.37;;;;;;;34.04;25.04;99390.19;4375781;32;34085;-70
2022/06/30 08:38:27;;;;;;;4.20;2.80;;;;;;;33.95;24.92;99381.41;4375804;32;34200;-70
2022/06/30 08:43:45;;;;;;;4.03;2.62;;;;;;;33.88;26.11;99378.66;4364360;32;33843;-71
2022/06/30 08:46:13;;;;;;;3.30;2.60;;;;;;;33.92;25.54;99373.81;4375212;32;34333;-71
2022/06/30 08:48:41;;;;;;;3.35;2.30;;;;;;;33.80;25.40;99377.94;4375239;32;34605;-70
2022/06/30 08:51:12;;;;;;;3.00;2.17;;;;;;;33.46;24.61;99366.56;4375423;32;33681;-73
2022/06/30 08:53:56;;;;;;;3.05;2.30;;;;;;;33.94;23.23;99374.19;4376738;32;34095;-72
2022/06/30 08:56:24;;;;;;;4.25;2.75;;;;;;;33.49;25.41;99369.31;4350910;32;34496;-73
2022/06/30 08:58:52;;;;;;;3.30;2.33;;;;;;;33.19;25.74;99369.94;4377855;32;34064;-69
2022/06/30 09:01:19;;;;;;;4.75;2.42;;;;;;;33.52;25.10;99373.31;4360601;32;33745;-70
2022/06/30 09:03:47;;;;;;;4.03;2.70;;;;;;;33.24;24.73;99388.38;4376259;32;33931;-70
2022/06/30 09:06:15;;;;;;;3.12;2.15;;;;;;;33.26;24.03;99369.91;4351807;32;33817;-75
2022/06/30 09:08:56;;;;;;;5.80;2.25;;;;;;;33.02;25.17;99374.44;4377576;32;35112;-76
2022/06/30 09:11:49;;;;;;;5.45;2.30;;;;;;;33.19;23.87;99367.13;4378789;32;33573;-76
2022/06/30 09:14:33;;;;;;;3.12;2.37;;;;;;;33.58;23.90;99371.66;4378697;32;34732;-73
2022/06/30 09:17:02;;;;;;;3.92;2.33;;;;;;;33.04;24.33;99376.84;4377260;32;34316;-74
2022/06/30 09:19:30;;;;;;;2.65;2.17;;;;;;;33.13;24.70;99370.78;4364735;32;32515;-72
2022/06/30 09:22:06;;;;;;;6.35;2.17;;;;;;;33.26;25.60;99380.34;4378812;32;33351;-76
2022/06/30 09:24:35;;;;;;;3.87;2.20;;;;;;;33.37;23.76;99381.09;4365070;32;33808;-73
2022/06/30 09:27:16;;;;;;;4.40;2.47;;;;;;;33.60;23.36;99382.53;4378666;32;34153;-74
2022/06/30 09:29:49;;;;;;;2.78;2.10;;;;;;;33.79;24.07;99378.34;4364824;32;34321;-74
2022/06/30 09:32:54;;;;;;;2.50;1.83;;;;;;;33.42;23.80;99379.84;4356257;32;33435;-71
2022/06/30 09:35:23;;;;;;;3.30;2.20;;;;;;;33.48;24.55;99381.00;4364980;32;34781;-77
2022/06/30 09:38:03;;;;;;;2.65;1.90;;;;;;;33.78;23.50;99368.31;4378524;32;34197;-71
2022/06/30 09:40:35;;;;;;;2.78;2.12;;;;;;;33.94;22.19;99370.59;4377982;32;34923;-75
2022/06/30 09:43:05;;;;;;;2.80;1.87;;;;;;;33.98;22.18;99366.50;4364434;32;34651;-70
2022/06/30 09:45:34;;;;;;;2.47;2.00;;;;;;;34.26;22.19;99368.25;4377364;32;33609;-71
2022/06/30 09:48:02;;;;;;;2.78;2.08;;;;;;;34.10;21.35;99351.09;4378041;32;34944;-68
2022/06/30 09:50:30;;;;;;;2.60;1.87;;;;;;;33.99;21.98;99356.03;4378286;32;34119;-70
2022/06/30 09:53:06;;;;;;;2.65;2.08;;;;;;;33.42;23.39;99346.88;4376550;32;33653;-70
2022/06/30 09:55:41;;;;;;;2.55;1.98;;;;;;;34.21;22.25;99342.56;4363883;32;34576;-70
2022/06/30 09:58:10;;;;;;;3.67;2.03;;;;;;;34.12;22.73;99343.06;4376777;32;33886;-71
2022/06/30 10:00:49;;;;;;;3.25;2.20;;;;;;;34.16;23.81;99351.47;4363626;32;33389;-69
2022/06/30 10:03:18;;;;;;;3.62;2.00;;;;;;;34.47;24.64;99341.03;4376969;32;33722;-71
2022/06/30 10:05:50;;;;;;;2.08;1.60;;;;;;;34.16;21.69;99329.75;4363752;32;33835;-68
2022/06/30 10:08:19;;;;;;;4.55;2.22;;;;;;;34.62;21.42;99342.44;4362889;32;33939;-73
2022/06/30 10:10:46;;;;;;;2.10;1.77;;;;;;;35.13;21.15;99348.25;4376281;32;34240;-72
2022/06/30 10:13:16;;;;;;;2.75;2.08;;;;;;;34.66;22.52;99328.34;4375945;32;33632;-73
2022/06/30 10:15:47;;;;;;;2.90;1.83;;;;;;;35.00;22.39;99330.31;4376434;32;34813;-71
2022/06/30 10:18:16;;;;;;;2.78;2.00;;;;;;;34.68;21.75;99323.88;4377172;32;33924;-72
2022/06/30 10:20:46;;;;;;;3.78;1.67;;;;;;;34.68;21.39;99348.47;4362148;32;34092;-70
2022/06/30 10:23:15;;;;;;;3.85;1.90;;;;;;;34.64;21.65;99328.78;4376201;32;34126;-70
2022/06/30 10:25:42;;;;;;;6.57;2.03;;;;;;;34.98;20.96;99324.28;4375806;32;33891;-74
2022/06/30 10:28:10;;;;;;;2.92;1.83;;;;;;;34.80;21.50;99319.72;4363394;32;35049;-72
2022/06/30 10:30:50;;;;;;;2.45;1.58;;;;;;;34.78;20.56;99322.16;4376582;32;34577;-69
2022/06/30 10:33:29;;;;;;;2.53;1.80;;;;;;;34.68;21.78;99334.38;4376750;32;33797;-73
2022/06/30 10:36:06;;;;;;;1.67;1.27;;;;;;;34.73;20.12;99322.63;4377019;32;34715;-73
2022/06/30 10:38:51;;;;;;;2.28;1.80;;;;;;;35.01;20.08;99323.44;4376366;32;34105;-71
2022/06/30 10:41:23;;;;;;;4.12;1.83;;;;;;;35.26;18.62;99335.16;4375732;32;34030;-73
2022/06/30 10:44:03;;;;;;;3.05;1.77;;;;;;;35.23;20.20;99321.91;4362914;32;32910;-72
2022/06/30 10:46:32;;;;;;;2.03;1.70;;;;;;;35.67;19.04;99310.72;4376807;32;33662;-71
2022/06/30 10:49:08;;;;;;;2.75;1.80;;;;;;;35.54;19.35;99321.81;4373719;32;33700;-71
2022/06/30 10:51:35;;;;;;;1.95;1.75;;;;;;;35.65;20.20;99322.44;4376289;32;35100;-72
2022/06/30 10:54:03;;;;;;;2.75;1.80;;;;;;;35.91;19.66;99322.78;4362937;32;34271;-70
2022/06/30 10:56:49;;;;;;;2.50;1.70;;;;;;;35.84;19.24;99309.59;4363294;32;34728;-72
2022/06/30 10:59:26;;;;;;;2.92;1.77;;;;;;;35.98;19.81;99316.19;4376996;32;33778;-73
2022/06/30 11:02:15;;;;;;;2.53;1.70;;;;;;;36.06;19.09;99307.16;4376824;32;34954;-70
2022/06/30 11:04:48;;;;;;;5.85;1.92;;;;;;;35.94;18.65;99300.13;4363147;32;32903;-72
2022/06/30 11:07:23;;;;;;;3.67;1.95;;;;;;;35.71;18.50;99303.78;4375975;32;34004;-73
2022/06/30 11:09:51;;;;;;;3.12;1.80;;;;;;;35.67;19.81;99307.91;4376599;32;34209;-72
2022/06/30 11:12:41;;;;;;;3.03;1.70;;;;;;;35.31;18.13;99295.19;4376754;32;34042;-70
2022/06/30 11:15:10;;;;;;;2.15;1.80;;;;;;;35.51;18.50;99300.09;4376664;32;34695;-70
2022/06/30 11:17:39;;;;;;;4.35;1.52;;;;;;;35.82;18.25;99305.63;4363274;32;34915;-71
2022/06/30 11:20:08;;;;;;;1.87;1.55;;;;;;;35.62;18.09;99286.59;4362753;32;34347;-74
2022/06/30 11:22:36;;;;;;;6.40;1.75;;;;;;;35.44;18.96;99284.06;4374788;32;33856;-72
2022/06/30 11:25:09;;;;;;;3.60;2.28;;;;;;;35.67;18.24;99280.47;4376996;32;33843;-71
2022/06/30 11:27:38;;;;;;;3.15;1.70;;;;;;;35.38;18.15;99287.81;4375383;32;35037;-71
2022/06/30 11:30:10;;;;;;;2.75;2.08;;;;;;;34.84;19.76;99283.81;4375433;32;34019;-72
2022/06/30 11:32:39;;;;;;;3.67;1.95;;;;;;;35.07;19.82;99268.94;4375336;32;34900;-71
2022/06/30 11:35:24;;;;;;;2.92;1.77;;;;;;;35.50;19.88;99275.94;4363102;32;32321;-71
2022/06/30 11:37:52;;;;;;;2.60;1.80;;;;;;;36.02;19.90;99272.53;4375684;32;34905;-72
2022/06/30 11:40:20;;;;;;;3.45;1.70;;;;;;;35.78;20.00;99271.03;4363036;32;34110;-70
2022/06/30 11:42:49;;;;;;;3.33;1.80;;;;;;;35.64;18.61;99263.59;4376104;32;34078;-72
2022/06/30 11:45:17;;;;;;;3.70;1.58;;;;;;;35.20;18.37;99268.38;4376320;32;34501;-74
2022/06/30 11:47:56;;;;;;;4.12;1.52;;;;;;;35.42;17.53;99264.00;4363042;32;33993;-70
2022/06/30 11:50:26;;;;;;;5.05;1.85;;;;;;;35.46;18.04;99252.63;4369346;32;34991;-71
2022/06/30 11:52:57;;;;;;;2.45;1.62;;;;;;;36.05;17.84;99257.56;4374440;32;34031;-71
2022/06/30 11:55:27;;;;;;;5.10;1.90;;;;;;;36.32;16.96;99253.81;4362916;32;33357;-72
2022/06/30 11:57:55;;;;;;;4.10;1.77;;;;;;;36.54;17.29;99254.13;4376280;32;34419;-71
2022/06/30 12:00:27;;;;;;;3.17;1.80;;;;;;;36.24;17.39;99239.03;4363107;32;34248;-69
2022/06/30 12:02:56;;;;;;;1.90;1.50;;;;;;;36.79;15.79;99261.28;4375140;32;34836;-70